Paradise Hot Springs, Idaho
Current Conditions -  °F | °C
As of 8:58 AM on Friday 24 Oct 2014 (Local Time) from KMUO Reporting Station
Overcast Overcast  
Wind Chill: 51°   Ceiling: 10000
Heat Index: 51°   Visibility: 10mi
Dew Point: 51°   Wind: 3mph
Humidity: 100%   Direction: 50°NE
Pressure: 30.09"   Gusts: NA
Location:  43.2609°N, 115.781°W
Report Text: KMUO 241458Z AUTO 05003KT 10SM OVC100 10/10 A3009 RMK AO2 SLP186 T01040104 52004
Loading
Personal Weather Stations






























Interactive Weather Map
Tropical Storm Tracking
New forecast layout! Learn more

10-Day Weather Forecast

Advertisements
Track Severe Weather on mobile